Schneifelwetter: Wetterstation Hallschlag, 537 m . NN
Wetterdaten: Montag, 17.09.2012
Datum Zeit Temp. A. Feuchte A. Luftdruck Regen Wind Richtung Richtung Sonnenschein T Regen Taupunkt Windchill
17.09.2012 00:14 6,8 C 90 % 1012 hPa 0,0 l/m 0,0 km/h (0 Bft) S-SW 195 0 min 0 min 5,3 C 6,8 C
17.09.2012 00:29 6,8 C 91 % 1012 hPa 0,0 l/m 0,0 km/h (0 Bft) S-SW 195 0 min 0 min 5,4 C 6,8 C
17.09.2012 00:44 6,7 C 91 % 1012 hPa 0,0 l/m 0,0 km/h (0 Bft) S-SW 195 0 min 0 min 5,3 C 6,7 C
17.09.2012 00:59 6,6 C 91 % 1012 hPa 0,0 l/m 0,0 km/h (0 Bft) S-SW 195 0 min 0 min 5,2 C 6,6 C
17.09.2012 01:14 6,4 C 91 % 1012 hPa 0,0 l/m 0,0 km/h (0 Bft) S-SW 195 0 min 0 min 5,0 C 6,4 C
17.09.2012 01:29 6,4 C 91 % 1012 hPa 0,0 l/m 0,0 km/h (0 Bft) S-SW 195 0 min 0 min 5,0 C 6,4 C
17.09.2012 01:44 6,3 C 91 % 1012 hPa 0,0 l/m 0,0 km/h (0 Bft) S-SW 195 0 min 0 min 4,9 C 6,3 C
17.09.2012 01:59 6,1 C 91 % 1012 hPa 0,0 l/m 0,0 km/h (0 Bft) S-SW 195 0 min 0 min 4,7 C 6,1 C
17.09.2012 02:14 6,0 C 92 % 1012 hPa 0,0 l/m 0,0 km/h (0 Bft) S-SW 195 0 min 0 min 4,8 C 6,0 C
17.09.2012 02:29 5,9 C 92 % 1012 hPa 0,0 l/m 0,0 km/h (0 Bft) S-SW 195 0 min 0 min 4,7 C 5,9 C
17.09.2012 02:44 5,9 C 92 % 1012 hPa 0,0 l/m 0,0 km/h (0 Bft) S-SW 195 0 min 0 min 4,7 C 5,9 C
17.09.2012 02:59 5,9 C 92 % 1012 hPa 0,0 l/m 0,0 km/h (0 Bft) S-SW 195 0 min 0 min 4,7 C 5,9 C
17.09.2012 03:14 5,8 C 92 % 1012 hPa 0,0 l/m 0,0 km/h (0 Bft) S-SW 195 0 min 0 min 4,6 C 5,8 C
17.09.2012 03:29 5,8 C 93 % 1012 hPa 0,0 l/m 0,0 km/h (0 Bft) S-SW 195 0 min 0 min 4,8 C 5,8 C
17.09.2012 03:44 5,5 C 93 % 1012 hPa 0,0 l/m 0,0 km/h (0 Bft) S-SW 195 0 min 0 min 4,5 C 5,5 C
17.09.2012 03:59 5,4 C 93 % 1012 hPa 0,0 l/m 0,0 km/h (0 Bft) S-SW 195 0 min 0 min 4,4 C 5,4 C
17.09.2012 04:14 5,2 C 93 % 1012 hPa 0,0 l/m 0,0 km/h (0 Bft) S-SW 195 0 min 0 min 4,2 C 5,2 C
17.09.2012 04:29 5,1 C 94 % 1012 hPa 0,0 l/m 0,0 km/h (0 Bft) S-SW 195 0 min 0 min 4,2 C 5,1 C
17.09.2012 04:44 5,2 C 94 % 1012 hPa 0,0 l/m 0,0 km/h (0 Bft) S-SW 195 0 min 0 min 4,3 C 5,2 C
17.09.2012 04:59 5,3 C 94 % 1012 hPa 0,0 l/m 0,0 km/h (0 Bft) S-SW 195 0 min 0 min 4,4 C 5,3 C
17.09.2012 05:14 5,4 C 94 % 1012 hPa 0,0 l/m 0,0 km/h (0 Bft) S-SW 195 0 min 0 min 4,5 C 5,4 C
17.09.2012 05:29 5,2 C 94 % 1012 hPa 0,0 l/m 0,0 km/h (0 Bft) S-SW 195 0 min 0 min 4,3 C 5,2 C
17.09.2012 05:44 5,2 C 94 % 1012 hPa 0,0 l/m 0,0 km/h (0 Bft) S-SW 195 0 min 0 min 4,3 C 5,2 C
17.09.2012 05:59 5,7 C 95 % 1012 hPa 0,0 l/m 0,0 km/h (0 Bft) S-SW 195 0 min 0 min 5,0 C 5,7 C
17.09.2012 06:14 6,3 C 95 % 1012 hPa 0,0 l/m 0,0 km/h (0 Bft) S-SW 195 0 min 0 min 5,6 C 6,3 C
17.09.2012 06:29 6,4 C 95 % 1013 hPa 0,0 l/m 0,0 km/h (0 Bft) S-SW 195 0 min 0 min 5,7 C 6,4 C
17.09.2012 06:44 6,4 C 95 % 1013 hPa 0,0 l/m 0,0 km/h (0 Bft) S-SW 195 0 min 0 min 5,7 C 6,4 C
17.09.2012 06:59 7,0 C 96 % 1013 hPa 0,0 l/m 0,0 km/h (0 Bft) S-SW 195 0 min 0 min 6,4 C 7,0 C
17.09.2012 07:14 7,2 C 96 % 1013 hPa 0,0 l/m 0,0 km/h (0 Bft) S-SW 195 0 min 0 min 6,6 C 7,2 C
17.09.2012 07:29 7,7 C 96 % 1013 hPa 0,0 l/m 0,0 km/h (0 Bft) S-SW 195 0 min 0 min 7,1 C 7,7 C
17.09.2012 07:44 7,6 C 96 % 1013 hPa 0,0 l/m 0,0 km/h (0 Bft) S-SW 195 0 min 0 min 7,0 C 7,6 C
17.09.2012 07:59 7,9 C 96 % 1013 hPa 0,0 l/m 0,0 km/h (0 Bft) S-SW 195 0 min 0 min 7,3 C 7,9 C
17.09.2012 08:14 8,0 C 96 % 1013 hPa 0,0 l/m 0,0 km/h (0 Bft) S-SW 195 0 min 0 min 7,4 C 8,0 C
17.09.2012 08:29 7,8 C 95 % 1013 hPa 0,0 l/m 0,0 km/h (0 Bft) S-SW 195 0 min 0 min 7,0 C 7,8 C
17.09.2012 08:44 7,8 C 96 % 1013 hPa 0,0 l/m 0,0 km/h (0 Bft) S-SW 195 0 min 0 min 7,2 C 7,8 C
17.09.2012 08:59 8,4 C 96 % 1013 hPa 0,0 l/m 0,0 km/h (0 Bft) S-SW 195 0 min 0 min 7,8 C 8,4 C
17.09.2012 09:14 8,9 C 96 % 1013 hPa 0,0 l/m 11,5 km/h (2 Bft) W22.5 270 0 min 0 min 8,3 C 5,5 C
17.09.2012 09:29 10,4 C 97 % 1013 hPa 0,0 l/m 13,2 km/h (3 Bft) W-SW22.5 255 0 min 0 min 9,9 C 6,4 C
17.09.2012 09:44 10,9 C 96 % 1014 hPa 0,0 l/m 15,5 km/h (3 Bft) W22.5 260 0 min 0 min 10,3 C 6,0 C
17.09.2012 09:59 11,6 C 96 % 1014 hPa 0,0 l/m 13,8 km/h (3 Bft) W-SW 250 0 min 0 min 11,0 C 7,6 C
17.09.2012 10:14 12,2 C 95 % 1013 hPa 0,0 l/m 14,6 km/h (3 Bft) W-SW 250 0 min 0 min 11,4 C 8,0 C
17.09.2012 10:29 12,8 C 94 % 1014 hPa 0,0 l/m 13,5 km/h (3 Bft) W22.5 260 0 min 0 min 11,9 C 9,1 C
17.09.2012 10:44 13,0 C 93 % 1014 hPa 0,0 l/m 13,5 km/h (3 Bft) W-SW22.5 245 0 min 0 min 11,9 C 9,3 C
17.09.2012 10:59 13,5 C 92 % 1014 hPa 0,0 l/m 13,6 km/h (3 Bft) W-SW45 240 0 min 0 min 12,2 C 9,9 C
17.09.2012 11:14 14,0 C 90 % 1014 hPa 0,0 l/m 16,0 km/h (3 Bft) W22.5 265 0 min 0 min 12,4 C 9,6 C
17.09.2012 11:29 14,5 C 89 % 1014 hPa 0,0 l/m 18,0 km/h (3 Bft) W45 260 0 min 0 min 12,7 C 9,6 C
17.09.2012 11:44 15,0 C 86 % 1014 hPa 0,0 l/m 17,5 km/h (3 Bft) SW67.5 225 0 min 0 min 12,7 C 10,4 C
17.09.2012 11:59 15,2 C 85 % 1014 hPa 0,0 l/m 19,6 km/h (3 Bft) W-SW22.5 250 0 min 0 min 12,7 C 10,1 C
17.09.2012 12:14 15,2 C 84 % 1014 hPa 0,0 l/m 16,7 km/h (3 Bft) W-SW22.5 240 0 min 0 min 12,5 C 10,9 C
17.09.2012 12:30 15,3 C 84 % 1014 hPa 0,0 l/m 19,9 km/h (4 Bft) W-SW45 245 0 min 0 min 12,6 C 10,2 C
17.09.2012 12:44 15,7 C 85 % 1014 hPa 0,0 l/m 18,7 km/h (3 Bft) SW45 235 0 min 0 min 13,2 C 11,0 C
17.09.2012 12:59 16,7 C 80 % 1014 hPa 0,0 l/m 22,6 km/h (4 Bft) W45 260 0 min 0 min 13,2 C 11,4 C
17.09.2012 13:14 16,8 C 79 % 1014 hPa 0,0 l/m 24,4 km/h (4 Bft) W-SW67.5 240 0 min 0 min 13,1 C 11,2 C
17.09.2012 13:29 17,0 C 78 % 1014 hPa 0,0 l/m 24,1 km/h (4 Bft) W45 270 0 min 0 min 13,1 C 11,5 C
17.09.2012 13:44 16,8 C 77 % 1014 hPa 0,0 l/m 24,8 km/h (4 Bft) W-SW45 250 0 min 0 min 12,7 C 11,1 C
17.09.2012 14:00 17,4 C 77 % 1014 hPa 0,0 l/m 23,0 km/h (4 Bft) W-SW45 255 0 min 0 min 13,3 C 12,2 C
17.09.2012 14:14 18,0 C 74 % 1014 hPa 0,0 l/m 25,7 km/h (4 Bft) W45 270 0 min 0 min 13,3 C 12,6 C
17.09.2012 14:29 18,0 C 74 % 1014 hPa 0,0 l/m 21,9 km/h (4 Bft) W-SW22.5 255 0 min 0 min 13,3 C 13,2 C
17.09.2012 14:44 18,1 C 72 % 1014 hPa 0,0 l/m 27,4 km/h (4 Bft) W45 265 0 min 0 min 13,0 C 12,4 C
17.09.2012 14:59 18,2 C 72 % 1014 hPa 0,0 l/m 21,0 km/h (4 Bft) SW45 220 0 min 0 min 13,1 C 13,7 C
17.09.2012 15:14 18,4 C 71 % 1014 hPa 0,0 l/m 27,9 km/h (4 Bft) SW67.5 225 0 min 0 min 13,0 C 12,8 C
17.09.2012 15:30 18,7 C 70 % 1014 hPa 0,0 l/m 22,5 km/h (4 Bft) W45 265 0 min 0 min 13,1 C 14,0 C
17.09.2012 15:44 18,8 C 69 % 1014 hPa 0,0 l/m 22,7 km/h (4 Bft) W45 260 0 min 0 min 13,0 C 14,1 C
17.09.2012 15:59 18,8 C 70 % 1013 hPa 0,0 l/m 19,8 km/h (3 Bft) W-SW45 250 0 min 0 min 13,2 C 14,7 C
17.09.2012 16:14 18,8 C 69 % 1013 hPa 0,0 l/m 16,5 km/h (3 Bft) W-SW22.5 250 0 min 0 min 13,0 C 15,4 C
17.09.2012 16:29 18,9 C 68 % 1013 hPa 0,0 l/m 19,3 km/h (3 Bft) W-SW45 255 0 min 0 min 12,9 C 14,9 C
17.09.2012 16:44 18,6 C 70 % 1013 hPa 0,0 l/m 12,5 km/h (3 Bft) W22.5 260 0 min 0 min 13,0 C 16,3 C
17.09.2012 17:00 18,9 C 69 % 1013 hPa 0,0 l/m 7,0 km/h (2 Bft) S-SO 165 0 min 0 min 13,1 C 18,6 C
17.09.2012 17:14 19,0 C 69 % 1013 hPa 0,0 l/m 20,6 km/h (4 Bft) W-SW22.5 255 0 min 0 min 13,2 C 14,8 C
17.09.2012 17:29 18,8 C 69 % 1013 hPa 0,0 l/m 15,2 km/h (3 Bft) SW45 225 0 min 0 min 13,0 C 15,7 C
17.09.2012 17:44 18,6 C 70 % 1013 hPa 0,0 l/m 14,7 km/h (3 Bft) W-SW22.5 255 0 min 0 min 13,0 C 15,6 C
17.09.2012 17:59 18,5 C 69 % 1013 hPa 0,0 l/m 16,3 km/h (3 Bft) W-SW45 245 0 min 0 min 12,7 C 15,1 C
17.09.2012 18:14 18,2 C 70 % 1013 hPa 0,0 l/m 13,2 km/h (3 Bft) W-SW 250 0 min 0 min 12,6 C 15,6 C
17.09.2012 18:30 17,8 C 71 % 1013 hPa 0,0 l/m 10,5 km/h (2 Bft) W-SW 250 0 min 0 min 12,5 C 16,0 C
17.09.2012 18:44 17,4 C 72 % 1013 hPa 0,0 l/m 10,1 km/h (2 Bft) W-SW 250 0 min 0 min 12,3 C 15,7 C
17.09.2012 18:59 16,9 C 73 % 1013 hPa 0,0 l/m 4,8 km/h (1 Bft) W-SW 250 0 min 0 min 12,0 C 16,9 C
17.09.2012 19:14 16,4 C 74 % 1013 hPa 0,0 l/m 0,6 km/h (0 Bft) W-SW 250 0 min 0 min 11,8 C 16,4 C
17.09.2012 19:29 15,6 C 75 % 1013 hPa 0,0 l/m 0,0 km/h (0 Bft) W-SW 250 0 min 0 min 11,2 C 15,6 C
17.09.2012 19:44 14,9 C 76 % 1013 hPa 0,0 l/m 0,0 km/h (0 Bft) W-SW 250 0 min 0 min 10,7 C 14,9 C
17.09.2012 19:59 14,0 C 77 % 1013 hPa 0,0 l/m 0,0 km/h (0 Bft) W-SW 250 0 min 0 min 10,0 C 14,0 C
17.09.2012 20:14 13,2 C 79 % 1013 hPa 0,0 l/m 0,0 km/h (0 Bft) W-SW 250 0 min 0 min 9,6 C 13,2 C
17.09.2012 20:29 12,6 C 80 % 1013 hPa 0,0 l/m 0,0 km/h (0 Bft) W-SW 250 0 min 0 min 9,2 C 12,6 C
17.09.2012 20:44 12,0 C 82 % 1013 hPa 0,0 l/m 0,0 km/h (0 Bft) W-SW 250 0 min 0 min 9,0 C 12,0 C
17.09.2012 20:59 11,4 C 83 % 1013 hPa 0,0 l/m 0,0 km/h (0 Bft) W-SW 250 0 min 0 min 8,6 C 11,4 C
17.09.2012 21:14 10,8 C 85 % 1013 hPa 0,0 l/m 0,0 km/h (0 Bft) W-SW 250 0 min 0 min 8,4 C 10,8 C
17.09.2012 21:29 10,4 C 86 % 1013 hPa 0,0 l/m 0,0 km/h (0 Bft) W-SW 250 0 min 0 min 8,2 C 10,4 C
17.09.2012 21:44 10,1 C 86 % 1013 hPa 0,0 l/m 0,0 km/h (0 Bft) W-SW 250 0 min 0 min 7,9 C 10,1 C
17.09.2012 21:59 9,7 C 87 % 1013 hPa 0,0 l/m 0,0 km/h (0 Bft) W-SW 250 0 min 0 min 7,6 C 9,7 C
17.09.2012 22:14 9,5 C 88 % 1013 hPa 0,0 l/m 0,0 km/h (0 Bft) W-SW 250 0 min 0 min 7,6 C 9,5 C
17.09.2012 22:29 9,2 C 88 % 1013 hPa 0,0 l/m 0,0 km/h (0 Bft) W-SW 250 0 min 0 min 7,3 C 9,2 C
17.09.2012 22:45 9,0 C 89 % 1013 hPa 0,0 l/m 0,0 km/h (0 Bft) W-SW 250 0 min 0 min 7,3 C 9,0 C
17.09.2012 22:59 8,6 C 89 % 1013 hPa 0,0 l/m 0,0 km/h (0 Bft) W-SW 250 0 min 0 min 6,9 C 8,6 C
17.09.2012 23:14 8,4 C 89 % 1013 hPa 0,0 l/m 0,0 km/h (0 Bft) W-SW 250 0 min 0 min 6,7 C 8,4 C
17.09.2012 23:29 8,0 C 90 % 1013 hPa 0,0 l/m 0,0 km/h (0 Bft) W-SW 250 0 min 0 min 6,5 C 8,0 C
17.09.2012 23:44 7,7 C 90 % 1013 hPa 0,0 l/m 0,0 km/h (0 Bft) W-SW 250 0 min 0 min 6,2 C 7,7 C
17.09.2012 23:53 7,9 C 91 % 1013 hPa 0,0 l/m 0,0 km/h (0 Bft) W-SW 250 0 min 0 min 6,5 C 7,9 C
_ Min-Zeit 04:29 16:29 00:14 - 00:14 - - - - 04:14 04:29
Minimum _ 5,1 C 68 % 1012 hPa - 0,0 km/h (0 Bft) - - - - 4,2 C 5,1 C
_ Max-Zeit 17:14 09:29 09:44 00:14 15:14 - - 00:14 00:14 14:00 17:00
Maximum _ 19,0 C 97 % 1014 hPa 0,0 l/m 27,9 km/h
SW (4 Bft)
- - 0 min 0 min 13,3 C 18,6 C
Durchschnitt _ 11,5 C 86 % 1013 hPa #0,0 l/m 7,4 km/h (2 Bft) W-SW - #0 min. #0 min. 9,0 C 9,8 C